DTYO2: Dirty Creek

Data processed at Fri Mar 09 2018 23:48


All information presented herein is the property of the government of the United States of America and may be revised or deleted at any time without prior notice.
Dissemination of this information without the expressed written consent of the Public Affairs Office, Tulsa District U.S. Army Corps of Engineers is strictly prohibited.
These data are gathered electronically and, as presented, have not undergone any form of quality control. These data are not guaranteed to be valid or correct.
Go to home page.
Go to station list.

Downstream station:


Previous Day
Next Day
Current Day
    
SHEF ID:       DTYO2     Dirty Creek
STATION TYPE:  

               PRECIP     STAGE  RIV-FLOW   VOLTAGE  BAT-LOAD
                   in        ft       cfs      volt      volt
              Ccp-Rev   Ccp-Rev   Ccp-Rev   Ccp-Rev   Ccp-Rev
(US/Central)
03/07 00:00      0.00      6.05       132     12.89     12.65
03/07 01:00      0.00      6.05       132     12.89     12.65
03/07 02:00      0.00      6.04       131     12.81     12.65
03/07 03:00      0.00      6.03       130     12.81     12.65
03/07 04:00      0.00      6.02       129     12.81     12.65
03/07 05:00      0.00      6.02       129     12.81     12.65
03/07 06:00      0.00      6.01       128     12.81     12.57
03/07 07:00      0.00      6.01       128     12.81     12.57
03/07 08:00      0.00      6.00       128     13.60     12.73
03/07 09:00      0.00      5.99       124     14.16     13.44
03/07 10:00      0.00      5.99       124     13.84     13.37
03/07 11:00      0.00      5.98       120     14.08     13.29
03/07 12:00      0.00      5.97       116     13.60     13.37
03/07 13:00      0.00      5.97       116     13.29     13.05
03/07 14:00      0.00      5.95       108     13.21     13.05
03/07 15:00      0.00      5.95       108     13.21     12.97
03/07 16:00      0.00      5.94       105     13.13     12.97
03/07 17:00      0.00      5.93       102     13.05     12.89
03/07 18:00      0.00      5.92        98     12.97     12.81
03/07 19:00      0.00      5.91        95     12.97     12.81
03/07 20:00      0.00      5.90        92     12.97     12.73
03/07 21:00      0.00      5.90        92     12.89     12.73
03/07 22:00      0.00      5.89        89     12.89     12.73
03/07 23:00      0.00      5.88        86     12.89     12.65